sensor_id;sensor_type;location;lat;lon;timestamp;P1;P2;P0
47810;PMS5003;33575;52.600;7.318;2023-02-28T00:00:14;25;25;
47810;PMS5003;33575;52.600;7.318;2023-02-28T00:02:45;21;21;
47810;PMS5003;33575;52.600;7.318;2023-02-28T00:05:16;22;21;
47810;PMS5003;33575;52.600;7.318;2023-02-28T00:07:45;26;26;
47810;PMS5003;33575;52.600;7.318;2023-02-28T00:10:17;20;18;
47810;PMS5003;33575;52.600;7.318;2023-02-28T00:12:47;19;18;
47810;PMS5003;33575;52.600;7.318;2023-02-28T00:15:18;20;19;
47810;PMS5003;33575;52.600;7.318;2023-02-28T00:17:48;17;16;
47810;PMS5003;33575;52.600;7.318;2023-02-28T00:20:18;21;19;
47810;PMS5003;33575;52.600;7.318;2023-02-28T00:22:50;20;19;
47810;PMS5003;33575;52.600;7.318;2023-02-28T00:25:20;21;19;
47810;PMS5003;33575;52.600;7.318;2023-02-28T00:27:49;19;18;
47810;PMS5003;33575;52.600;7.318;2023-02-28T00:30:21;18;17;
47810;PMS5003;33575;52.600;7.318;2023-02-28T00:32:51;20;20;
47810;PMS5003;33575;52.600;7.318;2023-02-28T00:35:22;24;22;
47810;PMS5003;33575;52.600;7.318;2023-02-28T00:37:52;18;17;
47810;PMS5003;33575;52.600;7.318;2023-02-28T00:40:23;18;18;
47810;PMS5003;33575;52.600;7.318;2023-02-28T00:42:54;16;16;
47810;PMS5003;33575;52.600;7.318;2023-02-28T00:45:25;19;18;
47810;PMS5003;33575;52.600;7.318;2023-02-28T00:47:56;18;17;
47810;PMS5003;33575;52.600;7.318;2023-02-28T00:50:26;19;18;
47810;PMS5003;33575;52.600;7.318;2023-02-28T00:52:57;19;19;
47810;PMS5003;33575;52.600;7.318;2023-02-28T00:55:28;18;18;
47810;PMS5003;33575;52.600;7.318;2023-02-28T00:57:58;19;18;
47810;PMS5003;33575;52.600;7.318;2023-02-28T01:00:29;19;17;
47810;PMS5003;33575;52.600;7.318;2023-02-28T01:02:59;23;22;
47810;PMS5003;33575;52.600;7.318;2023-02-28T01:05:30;18;18;
47810;PMS5003;33575;52.600;7.318;2023-02-28T01:08:00;22;20;
47810;PMS5003;33575;52.600;7.318;2023-02-28T01:10:30;23;20;
47810;PMS5003;33575;52.600;7.318;2023-02-28T01:13:01;22;21;
47810;PMS5003;33575;52.600;7.318;2023-02-28T01:15:31;20;19;
47810;PMS5003;33575;52.600;7.318;2023-02-28T01:18:02;18;16;
47810;PMS5003;33575;52.600;7.318;2023-02-28T01:20:33;18;16;
47810;PMS5003;33575;52.600;7.318;2023-02-28T01:23:04;19;18;
47810;PMS5003;33575;52.600;7.318;2023-02-28T01:25:34;20;19;
47810;PMS5003;33575;52.600;7.318;2023-02-28T01:28:04;20;20;
47810;PMS5003;33575;52.600;7.318;2023-02-28T01:30:34;22;22;
47810;PMS5003;33575;52.600;7.318;2023-02-28T01:33:05;18;16;
47810;PMS5003;33575;52.600;7.318;2023-02-28T01:35:36;18;18;
47810;PMS5003;33575;52.600;7.318;2023-02-28T01:38:11;24;23;
47810;PMS5003;33575;52.600;7.318;2023-02-28T01:40:37;21;19;
47810;PMS5003;33575;52.600;7.318;2023-02-28T01:43:09;20;20;
47810;PMS5003;33575;52.600;7.318;2023-02-28T01:45:37;24;21;
47810;PMS5003;33575;52.600;7.318;2023-02-28T01:48:07;22;22;
47810;PMS5003;33575;52.600;7.318;2023-02-28T01:50:39;22;20;
47810;PMS5003;33575;52.600;7.318;2023-02-28T01:53:10;16;16;
47810;PMS5003;33575;52.600;7.318;2023-02-28T01:55:39;21;21;
47810;PMS5003;33575;52.600;7.318;2023-02-28T01:58:10;19;19;
47810;PMS5003;33575;52.600;7.318;2023-02-28T02:00:41;19;19;
47810;PMS5003;33575;52.600;7.318;2023-02-28T02:03:13;17;17;
47810;PMS5003;33575;52.600;7.318;2023-02-28T02:05:42;22;18;
47810;PMS5003;33575;52.600;7.318;2023-02-28T02:08:13;19;19;
47810;PMS5003;33575;52.600;7.318;2023-02-28T02:10:43;21;19;
47810;PMS5003;33575;52.600;7.318;2023-02-28T02:13:18;19;17;
47810;PMS5003;33575;52.600;7.318;2023-02-28T02:15:46;18;17;
47810;PMS5003;33575;52.600;7.318;2023-02-28T02:18:17;20;18;
47810;PMS5003;33575;52.600;7.318;2023-02-28T02:25:45;20;18;
47810;PMS5003;33575;52.600;7.318;2023-02-28T02:30:53;20;18;
47810;PMS5003;33575;52.600;7.318;2023-02-28T02:35:47;16;16;
47810;PMS5003;33575;52.600;7.318;2023-02-28T02:38:18;16;16;
47810;PMS5003;33575;52.600;7.318;2023-02-28T02:40:48;19;17;
47810;PMS5003;33575;52.600;7.318;2023-02-28T02:43:18;21;20;
47810;PMS5003;33575;52.600;7.318;2023-02-28T02:45:49;20;16;
47810;PMS5003;33575;52.600;7.318;2023-02-28T02:48:19;17;16;
47810;PMS5003;33575;52.600;7.318;2023-02-28T02:50:52;14;13;
47810;PMS5003;33575;52.600;7.318;2023-02-28T02:53:21;18;16;
47810;PMS5003;33575;52.600;7.318;2023-02-28T02:55:51;18;18;
47810;PMS5003;33575;52.600;7.318;2023-02-28T02:58:22;17;16;
47810;PMS5003;33575;52.600;7.318;2023-02-28T03:00:52;17;17;
47810;PMS5003;33575;52.600;7.318;2023-02-28T03:03:22;16;16;
47810;PMS5003;33575;52.600;7.318;2023-02-28T03:05:52;20;20;
47810;PMS5003;33575;52.600;7.318;2023-02-28T03:08:22;16;16;
47810;PMS5003;33575;52.600;7.318;2023-02-28T03:10:55;19;16;
47810;PMS5003;33575;52.600;7.318;2023-02-28T03:15:58;16;16;
47810;PMS5003;33575;52.600;7.318;2023-02-28T03:18:27;17;16;
47810;PMS5003;33575;52.600;7.318;2023-02-28T03:20:57;17;16;
47810;PMS5003;33575;52.600;7.318;2023-02-28T03:23:28;19;17;
47810;PMS5003;33575;52.600;7.318;2023-02-28T03:25:59;16;16;
47810;PMS5003;33575;52.600;7.318;2023-02-28T03:28:30;16;15;
47810;PMS5003;33575;52.600;7.318;2023-02-28T03:31:00;19;17;
47810;PMS5003;33575;52.600;7.318;2023-02-28T03:33:31;16;15;
47810;PMS5003;33575;52.600;7.318;2023-02-28T03:36:02;19;18;
47810;PMS5003;33575;52.600;7.318;2023-02-28T03:38:33;16;15;
47810;PMS5003;33575;52.600;7.318;2023-02-28T03:41:04;16;15;
47810;PMS5003;33575;52.600;7.318;2023-02-28T03:43:34;13;13;
47810;PMS5003;33575;52.600;7.318;2023-02-28T03:46:05;15;15;
47810;PMS5003;33575;52.600;7.318;2023-02-28T03:48:36;19;18;
47810;PMS5003;33575;52.600;7.318;2023-02-28T03:51:04;17;16;
47810;PMS5003;33575;52.600;7.318;2023-02-28T03:53:36;18;17;
47810;PMS5003;33575;52.600;7.318;2023-02-28T03:56:06;18;17;
47810;PMS5003;33575;52.600;7.318;2023-02-28T03:58:37;18;17;
47810;PMS5003;33575;52.600;7.318;2023-02-28T04:01:07;20;19;
47810;PMS5003;33575;52.600;7.318;2023-02-28T04:03:37;21;21;
47810;PMS5003;33575;52.600;7.318;2023-02-28T04:06:08;19;17;
47810;PMS5003;33575;52.600;7.318;2023-02-28T04:08:39;23;21;
47810;PMS5003;33575;52.600;7.318;2023-02-28T04:11:12;22;19;
47810;PMS5003;33575;52.600;7.318;2023-02-28T04:13:39;19;17;
47810;PMS5003;33575;52.600;7.318;2023-02-28T04:16:09;18;18;
47810;PMS5003;33575;52.600;7.318;2023-02-28T04:18:40;19;17;
47810;PMS5003;33575;52.600;7.318;2023-02-28T04:21:11;20;20;
47810;PMS5003;33575;52.600;7.318;2023-02-28T04:23:41;19;18;
47810;PMS5003;33575;52.600;7.318;2023-02-28T04:26:12;21;19;
47810;PMS5003;33575;52.600;7.318;2023-02-28T04:28:43;20;20;
47810;PMS5003;33575;52.600;7.318;2023-02-28T04:31:13;20;20;
47810;PMS5003;33575;52.600;7.318;2023-02-28T04:33:44;18;17;
47810;PMS5003;33575;52.600;7.318;2023-02-28T04:36:15;19;18;
47810;PMS5003;33575;52.600;7.318;2023-02-28T04:38:46;22;21;
47810;PMS5003;33575;52.600;7.318;2023-02-28T04:41:16;18;17;
47810;PMS5003;33575;52.600;7.318;2023-02-28T04:43:47;18;18;
47810;PMS5003;33575;52.600;7.318;2023-02-28T04:46:17;20;19;
47810;PMS5003;33575;52.600;7.318;2023-02-28T04:48:47;20;17;
47810;PMS5003;33575;52.600;7.318;2023-02-28T04:51:18;18;18;
47810;PMS5003;33575;52.600;7.318;2023-02-28T04:53:49;21;20;
47810;PMS5003;33575;52.600;7.318;2023-02-28T04:56:19;17;17;
47810;PMS5003;33575;52.600;7.318;2023-02-28T04:58:49;22;21;
47810;PMS5003;33575;52.600;7.318;2023-02-28T05:01:21;27;24;
47810;PMS5003;33575;52.600;7.318;2023-02-28T05:03:50;22;20;
47810;PMS5003;33575;52.600;7.318;2023-02-28T05:06:21;18;18;
47810;PMS5003;33575;52.600;7.318;2023-02-28T05:08:50;23;21;
47810;PMS5003;33575;52.600;7.318;2023-02-28T05:11:23;20;20;
47810;PMS5003;33575;52.600;7.318;2023-02-28T05:13:52;21;20;
47810;PMS5003;33575;52.600;7.318;2023-02-28T05:16:21;20;19;
47810;PMS5003;33575;52.600;7.318;2023-02-28T05:18:52;16;16;
47810;PMS5003;33575;52.600;7.318;2023-02-28T05:21:24;22;20;
47810;PMS5003;33575;52.600;7.318;2023-02-28T05:23:53;19;18;
47810;PMS5003;33575;52.600;7.318;2023-02-28T05:26:24;23;21;
47810;PMS5003;33575;52.600;7.318;2023-02-28T05:28:53;19;19;
47810;PMS5003;33575;52.600;7.318;2023-02-28T05:31:24;23;19;
47810;PMS5003;33575;52.600;7.318;2023-02-28T05:33:55;22;21;
47810;PMS5003;33575;52.600;7.318;2023-02-28T05:36:26;21;19;
47810;PMS5003;33575;52.600;7.318;2023-02-28T05:38:56;18;17;
47810;PMS5003;33575;52.600;7.318;2023-02-28T05:41:26;20;19;
47810;PMS5003;33575;52.600;7.318;2023-02-28T05:43:56;20;19;
47810;PMS5003;33575;52.600;7.318;2023-02-28T05:46:26;19;19;
47810;PMS5003;33575;52.600;7.318;2023-02-28T05:48:56;18;18;
47810;PMS5003;33575;52.600;7.318;2023-02-28T05:51:27;21;18;
47810;PMS5003;33575;52.600;7.318;2023-02-28T05:53:58;16;16;
47810;PMS5003;33575;52.600;7.318;2023-02-28T05:56:27;17;16;
47810;PMS5003;33575;52.600;7.318;2023-02-28T05:58:58;19;19;
47810;PMS5003;33575;52.600;7.318;2023-02-28T06:01:32;17;17;
47810;PMS5003;33575;52.600;7.318;2023-02-28T06:04:00;16;16;
47810;PMS5003;33575;52.600;7.318;2023-02-28T06:06:31;14;13;
47810;PMS5003;33575;52.600;7.318;2023-02-28T06:09:01;17;16;
47810;PMS5003;33575;52.600;7.318;2023-02-28T06:11:32;20;20;
47810;PMS5003;33575;52.600;7.318;2023-02-28T06:14:02;23;20;
47810;PMS5003;33575;52.600;7.318;2023-02-28T06:16:33;20;20;
47810;PMS5003;33575;52.600;7.318;2023-02-28T06:19:03;16;15;
47810;PMS5003;33575;52.600;7.318;2023-02-28T06:21:34;20;19;
47810;PMS5003;33575;52.600;7.318;2023-02-28T06:24:05;20;18;
47810;PMS5003;33575;52.600;7.318;2023-02-28T06:26:35;18;18;
47810;PMS5003;33575;52.600;7.318;2023-02-28T06:29:05;17;17;
47810;PMS5003;33575;52.600;7.318;2023-02-28T06:31:35;17;17;
47810;PMS5003;33575;52.600;7.318;2023-02-28T06:34:06;16;15;
47810;PMS5003;33575;52.600;7.318;2023-02-28T06:36:36;17;17;
47810;PMS5003;33575;52.600;7.318;2023-02-28T06:39:07;19;19;
47810;PMS5003;33575;52.600;7.318;2023-02-28T06:41:42;24;23;
47810;PMS5003;33575;52.600;7.318;2023-02-28T06:44:11;27;26;
47810;PMS5003;33575;52.600;7.318;2023-02-28T06:46:38;20;20;
47810;PMS5003;33575;52.600;7.318;2023-02-28T06:49:08;24;24;
47810;PMS5003;33575;52.600;7.318;2023-02-28T06:51:40;24;24;
47810;PMS5003;33575;52.600;7.318;2023-02-28T06:54:09;25;23;
47810;PMS5003;33575;52.600;7.318;2023-02-28T06:56:40;24;24;
47810;PMS5003;33575;52.600;7.318;2023-02-28T06:59:10;25;25;
47810;PMS5003;33575;52.600;7.318;2023-02-28T07:01:40;26;25;
47810;PMS5003;33575;52.600;7.318;2023-02-28T07:04:10;27;26;
47810;PMS5003;33575;52.600;7.318;2023-02-28T07:06:41;27;25;
47810;PMS5003;33575;52.600;7.318;2023-02-28T07:09:11;29;25;
47810;PMS5003;33575;52.600;7.318;2023-02-28T07:11:41;33;30;
47810;PMS5003;33575;52.600;7.318;2023-02-28T07:14:11;34;33;
47810;PMS5003;33575;52.600;7.318;2023-02-28T07:16:42;34;32;
47810;PMS5003;33575;52.600;7.318;2023-02-28T07:19:12;27;26;
47810;PMS5003;33575;52.600;7.318;2023-02-28T07:21:42;37;30;
47810;PMS5003;33575;52.600;7.318;2023-02-28T07:24:13;33;31;
47810;PMS5003;33575;52.600;7.318;2023-02-28T07:26:44;30;30;
47810;PMS5003;33575;52.600;7.318;2023-02-28T07:29:15;29;29;
47810;PMS5003;33575;52.600;7.318;2023-02-28T07:31:45;29;28;
47810;PMS5003;33575;52.600;7.318;2023-02-28T07:34:15;31;30;
47810;PMS5003;33575;52.600;7.318;2023-02-28T07:36:46;29;29;
47810;PMS5003;33575;52.600;7.318;2023-02-28T07:39:16;27;27;
47810;PMS5003;33575;52.600;7.318;2023-02-28T07:41:47;28;26;
47810;PMS5003;33575;52.600;7.318;2023-02-28T07:44:17;25;25;
47810;PMS5003;33575;52.600;7.318;2023-02-28T07:46:48;26;24;
47810;PMS5003;33575;52.600;7.318;2023-02-28T07:49:18;27;25;
47810;PMS5003;33575;52.600;7.318;2023-02-28T07:51:49;26;25;
47810;PMS5003;33575;52.600;7.318;2023-02-28T07:54:19;26;23;
47810;PMS5003;33575;52.600;7.318;2023-02-28T07:56:50;33;32;
47810;PMS5003;33575;52.600;7.318;2023-02-28T07:59:20;42;41;
47810;PMS5003;33575;52.600;7.318;2023-02-28T08:01:51;46;45;
47810;PMS5003;33575;52.600;7.318;2023-02-28T08:04:21;37;35;
47810;PMS5003;33575;52.600;7.318;2023-02-28T08:06:52;38;35;
47810;PMS5003;33575;52.600;7.318;2023-02-28T08:09:23;28;28;
47810;PMS5003;33575;52.600;7.318;2023-02-28T08:11:53;26;25;
47810;PMS5003;33575;52.600;7.318;2023-02-28T08:14:24;29;27;
47810;PMS5003;33575;52.600;7.318;2023-02-28T08:16:54;27;25;
47810;PMS5003;33575;52.600;7.318;2023-02-28T08:19:25;26;23;
47810;PMS5003;33575;52.600;7.318;2023-02-28T08:21:55;26;26;
47810;PMS5003;33575;52.600;7.318;2023-02-28T08:24:25;28;27;
47810;PMS5003;33575;52.600;7.318;2023-02-28T08:26:56;33;29;
47810;PMS5003;33575;52.600;7.318;2023-02-28T08:29:26;26;24;
47810;PMS5003;33575;52.600;7.318;2023-02-28T08:31:56;21;20;
47810;PMS5003;33575;52.600;7.318;2023-02-28T08:34:26;25;22;
47810;PMS5003;33575;52.600;7.318;2023-02-28T08:36:57;21;20;
47810;PMS5003;33575;52.600;7.318;2023-02-28T08:39:28;19;17;
47810;PMS5003;33575;52.600;7.318;2023-02-28T08:42:04;16;15;
47810;PMS5003;33575;52.600;7.318;2023-02-28T08:44:30;19;19;
47810;PMS5003;33575;52.600;7.318;2023-02-28T08:47:00;19;19;
47810;PMS5003;33575;52.600;7.318;2023-02-28T08:49:31;13;13;
47810;PMS5003;33575;52.600;7.318;2023-02-28T08:52:02;14;14;
47810;PMS5003;33575;52.600;7.318;2023-02-28T08:54:33;9;9;
47810;PMS5003;33575;52.600;7.318;2023-02-28T08:57:03;12;11;
47810;PMS5003;33575;52.600;7.318;2023-02-28T08:59:34;12;12;
47810;PMS5003;33575;52.600;7.318;2023-02-28T09:02:05;13;12;
47810;PMS5003;33575;52.600;7.318;2023-02-28T09:04:36;13;13;
47810;PMS5003;33575;52.600;7.318;2023-02-28T09:07:07;11;11;
47810;PMS5003;33575;52.600;7.318;2023-02-28T09:09:38;12;10;
47810;PMS5003;33575;52.600;7.318;2023-02-28T09:12:08;12;10;
47810;PMS5003;33575;52.600;7.318;2023-02-28T09:14:39;7;7;
47810;PMS5003;33575;52.600;7.318;2023-02-28T09:17:10;8;7;
47810;PMS5003;33575;52.600;7.318;2023-02-28T09:19:41;8;8;
47810;PMS5003;33575;52.600;7.318;2023-02-28T09:22:12;9;8;
47810;PMS5003;33575;52.600;7.318;2023-02-28T09:24:42;10;10;
47810;PMS5003;33575;52.600;7.318;2023-02-28T09:27:13;9;8;
47810;PMS5003;33575;52.600;7.318;2023-02-28T09:29:44;6;6;
47810;PMS5003;33575;52.600;7.318;2023-02-28T09:32:15;7;7;
47810;PMS5003;33575;52.600;7.318;2023-02-28T09:34:45;6;6;
47810;PMS5003;33575;52.600;7.318;2023-02-28T09:37:16;8;7;
47810;PMS5003;33575;52.600;7.318;2023-02-28T09:39:47;6;6;
47810;PMS5003;33575;52.600;7.318;2023-02-28T09:42:22;5;5;
47810;PMS5003;33575;52.600;7.318;2023-02-28T09:44:49;6;6;
47810;PMS5003;33575;52.600;7.318;2023-02-28T09:47:21;6;6;
47810;PMS5003;33575;52.600;7.318;2023-02-28T09:49:50;6;5;
47810;PMS5003;33575;52.600;7.318;2023-02-28T09:52:22;7;7;
47810;PMS5003;33575;52.600;7.318;2023-02-28T09:54:52;5;5;
47810;PMS5003;33575;52.600;7.318;2023-02-28T09:57:25;7;7;
47810;PMS5003;33575;52.600;7.318;2023-02-28T09:59:57;8;7;
47810;PMS5003;33575;52.600;7.318;2023-02-28T10:04:59;7;5;
47810;PMS5003;33575;52.600;7.318;2023-02-28T10:09:57;5;5;
47810;PMS5003;33575;52.600;7.318;2023-02-28T10:12:27;6;6;
47810;PMS5003;33575;52.600;7.318;2023-02-28T10:14:58;8;7;
47810;PMS5003;33575;52.600;7.318;2023-02-28T10:17:29;6;6;
47810;PMS5003;33575;52.600;7.318;2023-02-28T10:20:00;5;5;
47810;PMS5003;33575;52.600;7.318;2023-02-28T10:22:31;5;5;
47810;PMS5003;33575;52.600;7.318;2023-02-28T10:25:04;6;6;
47810;PMS5003;33575;52.600;7.318;2023-02-28T10:27:31;7;5;
47810;PMS5003;33575;52.600;7.318;2023-02-28T10:30:02;6;5;
47810;PMS5003;33575;52.600;7.318;2023-02-28T10:32:33;5;5;
47810;PMS5003;33575;52.600;7.318;2023-02-28T10:35:09;7;7;
47810;PMS5003;33575;52.600;7.318;2023-02-28T10:37:33;6;6;
47810;PMS5003;33575;52.600;7.318;2023-02-28T10:40:05;6;5;
47810;PMS5003;33575;52.600;7.318;2023-02-28T10:42:35;6;6;
47810;PMS5003;33575;52.600;7.318;2023-02-28T10:45:07;5;5;
47810;PMS5003;33575;52.600;7.318;2023-02-28T10:47:37;7;7;
47810;PMS5003;33575;52.600;7.318;2023-02-28T10:50:08;7;6;
47810;PMS5003;33575;52.600;7.318;2023-02-28T10:52:38;6;6;
47810;PMS5003;33575;52.600;7.318;2023-02-28T10:57:38;7;7;
47810;PMS5003;33575;52.600;7.318;2023-02-28T11:00:13;6;6;
47810;PMS5003;33575;52.600;7.318;2023-02-28T11:02:40;7;7;
47810;PMS5003;33575;52.600;7.318;2023-02-28T11:07:50;4;4;
47810;PMS5003;33575;52.600;7.318;2023-02-28T11:10:16;6;6;
47810;PMS5003;33575;52.600;7.318;2023-02-28T11:12:47;5;5;
47810;PMS5003;33575;52.600;7.318;2023-02-28T11:17:43;6;6;
47810;PMS5003;33575;52.600;7.318;2023-02-28T11:20:17;7;7;
47810;PMS5003;33575;52.600;7.318;2023-02-28T11:22:45;6;6;
47810;PMS5003;33575;52.600;7.318;2023-02-28T11:25:16;6;6;
47810;PMS5003;33575;52.600;7.318;2023-02-28T11:27:47;6;6;
47810;PMS5003;33575;52.600;7.318;2023-02-28T11:32:48;6;5;
47810;PMS5003;33575;52.600;7.318;2023-02-28T11:35:21;6;6;
47810;PMS5003;33575;52.600;7.318;2023-02-28T11:37:49;6;5;
47810;PMS5003;33575;52.600;7.318;2023-02-28T11:40:21;5;5;
47810;PMS5003;33575;52.600;7.318;2023-02-28T11:42:53;7;7;
47810;PMS5003;33575;52.600;7.318;2023-02-28T11:45:24;4;4;
47810;PMS5003;33575;52.600;7.318;2023-02-28T11:47:53;9;8;
47810;PMS5003;33575;52.600;7.318;2023-02-28T11:50:26;7;6;
47810;PMS5003;33575;52.600;7.318;2023-02-28T11:52:53;7;6;
47810;PMS5003;33575;52.600;7.318;2023-02-28T11:55:24;5;5;
47810;PMS5003;33575;52.600;7.318;2023-02-28T12:00:29;7;7;
47810;PMS5003;33575;52.600;7.318;2023-02-28T12:02:59;9;7;
47810;PMS5003;33575;52.600;7.318;2023-02-28T12:05:28;6;6;
47810;PMS5003;33575;52.600;7.318;2023-02-28T12:08:00;7;7;
47810;PMS5003;33575;52.600;7.318;2023-02-28T12:10:28;7;7;
47810;PMS5003;33575;52.600;7.318;2023-02-28T12:13:01;6;6;
47810;PMS5003;33575;52.600;7.318;2023-02-28T12:15:33;7;5;
47810;PMS5003;33575;52.600;7.318;2023-02-28T12:18:03;7;7;
47810;PMS5003;33575;52.600;7.318;2023-02-28T12:20:32;9;9;
47810;PMS5003;33575;52.600;7.318;2023-02-28T12:23:06;7;7;
47810;PMS5003;33575;52.600;7.318;2023-02-28T12:25:37;7;7;
47810;PMS5003;33575;52.600;7.318;2023-02-28T12:28:02;7;5;
47810;PMS5003;33575;52.600;7.318;2023-02-28T12:30:33;7;7;
47810;PMS5003;33575;52.600;7.318;2023-02-28T12:33:04;7;7;
47810;PMS5003;33575;52.600;7.318;2023-02-28T12:35:35;6;6;
47810;PMS5003;33575;52.600;7.318;2023-02-28T12:38:05;4;4;
47810;PMS5003;33575;52.600;7.318;2023-02-28T12:40:41;4;4;
47810;PMS5003;33575;52.600;7.318;2023-02-28T12:43:06;5;5;
47810;PMS5003;33575;52.600;7.318;2023-02-28T12:45:39;4;4;
47810;PMS5003;33575;52.600;7.318;2023-02-28T12:48:08;5;5;
47810;PMS5003;33575;52.600;7.318;2023-02-28T12:50:37;6;6;
47810;PMS5003;33575;52.600;7.318;2023-02-28T12:53:09;6;5;
47810;PMS5003;33575;52.600;7.318;2023-02-28T12:55:40;7;6;
47810;PMS5003;33575;52.600;7.318;2023-02-28T12:58:12;6;5;
47810;PMS5003;33575;52.600;7.318;2023-02-28T13:00:43;6;5;
47810;PMS5003;33575;52.600;7.318;2023-02-28T13:03:16;5;5;
47810;PMS5003;33575;52.600;7.318;2023-02-28T13:05:46;5;4;
47810;PMS5003;33575;52.600;7.318;2023-02-28T13:08:17;6;5;
47810;PMS5003;33575;52.600;7.318;2023-02-28T13:10:44;5;5;
47810;PMS5003;33575;52.600;7.318;2023-02-28T13:13:14;6;6;
47810;PMS5003;33575;52.600;7.318;2023-02-28T13:20:47;6;6;
47810;PMS5003;33575;52.600;7.318;2023-02-28T13:25:50;6;5;
47810;PMS5003;33575;52.600;7.318;2023-02-28T13:33:22;5;5;
47810;PMS5003;33575;52.600;7.318;2023-02-28T13:38:23;6;6;
47810;PMS5003;33575;52.600;7.318;2023-02-28T13:40:51;4;4;
47810;PMS5003;33575;52.600;7.318;2023-02-28T13:48:23;9;9;
47810;PMS5003;33575;52.600;7.318;2023-02-28T13:50:53;6;6;
47810;PMS5003;33575;52.600;7.318;2023-02-28T13:55:57;7;7;
47810;PMS5003;33575;52.600;7.318;2023-02-28T13:58:32;5;5;
47810;PMS5003;33575;52.600;7.318;2023-02-28T14:01:03;5;5;
47810;PMS5003;33575;52.600;7.318;2023-02-28T14:03:31;5;5;
47810;PMS5003;33575;52.600;7.318;2023-02-28T14:08:28;7;6;
47810;PMS5003;33575;52.600;7.318;2023-02-28T14:11:02;6;5;
47810;PMS5003;33575;52.600;7.318;2023-02-28T14:16:00;5;5;
47810;PMS5003;33575;52.600;7.318;2023-02-28T14:18:32;5;5;
47810;PMS5003;33575;52.600;7.318;2023-02-28T14:21:03;5;5;
47810;PMS5003;33575;52.600;7.318;2023-02-28T14:23:35;4;4;
47810;PMS5003;33575;52.600;7.318;2023-02-28T14:26:04;6;5;
47810;PMS5003;33575;52.600;7.318;2023-02-28T14:31:05;4;4;
47810;PMS5003;33575;52.600;7.318;2023-02-28T14:33:38;4;4;
47810;PMS5003;33575;52.600;7.318;2023-02-28T14:36:09;3;3;
47810;PMS5003;33575;52.600;7.318;2023-02-28T14:38:38;5;5;
47810;PMS5003;33575;52.600;7.318;2023-02-28T14:41:12;3;3;
47810;PMS5003;33575;52.600;7.318;2023-02-28T14:43:47;4;4;
47810;PMS5003;33575;52.600;7.318;2023-02-28T14:46:08;6;5;
47810;PMS5003;33575;52.600;7.318;2023-02-28T14:48:38;6;6;
47810;PMS5003;33575;52.600;7.318;2023-02-28T14:51:09;4;4;
47810;PMS5003;33575;52.600;7.318;2023-02-28T14:53:40;4;4;
47810;PMS5003;33575;52.600;7.318;2023-02-28T14:58:53;5;5;
47810;PMS5003;33575;52.600;7.318;2023-02-28T15:01:12;4;4;
47810;PMS5003;33575;52.600;7.318;2023-02-28T15:03:42;5;5;
47810;PMS5003;33575;52.600;7.318;2023-02-28T15:06:14;5;5;
47810;PMS5003;33575;52.600;7.318;2023-02-28T15:08:44;4;4;
47810;PMS5003;33575;52.600;7.318;2023-02-28T15:11:15;6;5;
47810;PMS5003;33575;52.600;7.318;2023-02-28T15:13:46;6;6;
47810;PMS5003;33575;52.600;7.318;2023-02-28T15:16:17;5;5;
47810;PMS5003;33575;52.600;7.318;2023-02-28T15:18:47;5;5;
47810;PMS5003;33575;52.600;7.318;2023-02-28T15:21:20;6;6;
47810;PMS5003;33575;52.600;7.318;2023-02-28T15:23:49;6;5;
47810;PMS5003;33575;52.600;7.318;2023-02-28T15:26:19;5;5;
47810;PMS5003;33575;52.600;7.318;2023-02-28T15:28:49;10;8;
47810;PMS5003;33575;52.600;7.318;2023-02-28T15:31:22;8;8;
47810;PMS5003;33575;52.600;7.318;2023-02-28T15:33:52;7;6;
47810;PMS5003;33575;52.600;7.318;2023-02-28T15:36:24;5;5;
47810;PMS5003;33575;52.600;7.318;2023-02-28T15:38:52;7;7;
47810;PMS5003;33575;52.600;7.318;2023-02-28T15:41:25;9;8;
47810;PMS5003;33575;52.600;7.318;2023-02-28T15:46:24;7;6;
47810;PMS5003;33575;52.600;7.318;2023-02-28T15:48:55;7;7;
47810;PMS5003;33575;52.600;7.318;2023-02-28T15:51:27;10;8;
47810;PMS5003;33575;52.600;7.318;2023-02-28T15:53:57;7;7;
47810;PMS5003;33575;52.600;7.318;2023-02-28T15:56:27;8;7;
47810;PMS5003;33575;52.600;7.318;2023-02-28T15:58:58;6;6;
47810;PMS5003;33575;52.600;7.318;2023-02-28T16:01:29;6;6;
47810;PMS5003;33575;52.600;7.318;2023-02-28T16:03:59;6;6;
47810;PMS5003;33575;52.600;7.318;2023-02-28T16:09:00;7;5;
47810;PMS5003;33575;52.600;7.318;2023-02-28T16:11:32;10;8;
47810;PMS5003;33575;52.600;7.318;2023-02-28T16:14:02;9;9;
47810;PMS5003;33575;52.600;7.318;2023-02-28T16:16:32;6;6;
47810;PMS5003;33575;52.600;7.318;2023-02-28T16:19:03;8;7;
47810;PMS5003;33575;52.600;7.318;2023-02-28T16:21:34;8;7;
47810;PMS5003;33575;52.600;7.318;2023-02-28T16:24:04;12;11;
47810;PMS5003;33575;52.600;7.318;2023-02-28T16:26:35;8;7;
47810;PMS5003;33575;52.600;7.318;2023-02-28T16:29:06;6;6;
47810;PMS5003;33575;52.600;7.318;2023-02-28T16:31:37;7;7;
47810;PMS5003;33575;52.600;7.318;2023-02-28T16:34:07;7;6;
47810;PMS5003;33575;52.600;7.318;2023-02-28T16:36:38;5;5;
47810;PMS5003;33575;52.600;7.318;2023-02-28T16:39:08;7;7;
47810;PMS5003;33575;52.600;7.318;2023-02-28T16:41:39;6;6;
47810;PMS5003;33575;52.600;7.318;2023-02-28T16:44:10;6;6;
47810;PMS5003;33575;52.600;7.318;2023-02-28T16:46:40;7;6;
47810;PMS5003;33575;52.600;7.318;2023-02-28T16:49:11;11;10;
47810;PMS5003;33575;52.600;7.318;2023-02-28T16:51:42;11;10;
47810;PMS5003;33575;52.600;7.318;2023-02-28T16:54:12;14;13;
47810;PMS5003;33575;52.600;7.318;2023-02-28T16:56:43;13;11;
47810;PMS5003;33575;52.600;7.318;2023-02-28T16:59:13;17;16;
47810;PMS5003;33575;52.600;7.318;2023-02-28T17:01:43;18;18;
47810;PMS5003;33575;52.600;7.318;2023-02-28T17:04:13;18;17;
47810;PMS5003;33575;52.600;7.318;2023-02-28T17:06:44;17;16;
47810;PMS5003;33575;52.600;7.318;2023-02-28T17:09:16;16;16;
47810;PMS5003;33575;52.600;7.318;2023-02-28T17:11:45;18;16;
47810;PMS5003;33575;52.600;7.318;2023-02-28T17:14:15;19;16;
47810;PMS5003;33575;52.600;7.318;2023-02-28T17:16:45;16;16;
47810;PMS5003;33575;52.600;7.318;2023-02-28T17:19:16;14;13;
47810;PMS5003;33575;52.600;7.318;2023-02-28T17:21:47;21;17;
47810;PMS5003;33575;52.600;7.318;2023-02-28T17:24:22;23;22;
47810;PMS5003;33575;52.600;7.318;2023-02-28T17:26:48;11;10;
47810;PMS5003;33575;52.600;7.318;2023-02-28T17:29:20;8;8;
47810;PMS5003;33575;52.600;7.318;2023-02-28T17:31:49;22;20;
47810;PMS5003;33575;52.600;7.318;2023-02-28T17:34:20;15;12;
47810;PMS5003;33575;52.600;7.318;2023-02-28T17:36:50;23;21;
47810;PMS5003;33575;52.600;7.318;2023-02-28T17:39:21;31;30;
47810;PMS5003;33575;52.600;7.318;2023-02-28T17:41:51;42;39;
47810;PMS5003;33575;52.600;7.318;2023-02-28T17:44:22;44;43;
47810;PMS5003;33575;52.600;7.318;2023-02-28T17:46:52;32;31;
47810;PMS5003;33575;52.600;7.318;2023-02-28T17:49:23;27;25;
47810;PMS5003;33575;52.600;7.318;2023-02-28T17:51:53;23;23;
47810;PMS5003;33575;52.600;7.318;2023-02-28T17:54:24;24;23;
47810;PMS5003;33575;52.600;7.318;2023-02-28T17:56:55;19;18;
47810;PMS5003;33575;52.600;7.318;2023-02-28T17:59:26;17;16;